sensor_id;sensor_type;location;lat;lon;timestamp;P1;durP1;ratioP1;P2;durP2;ratioP2
18407;SDS011;9330;52.210;21.174;2023-06-24T00:02:18;4.93;;;4.00;;
18407;SDS011;9330;52.210;21.174;2023-06-24T00:04:49;4.03;;;3.40;;
18407;SDS011;9330;52.210;21.174;2023-06-24T00:07:15;3.92;;;3.10;;
18407;SDS011;9330;52.210;21.174;2023-06-24T00:09:42;4.78;;;3.72;;
18407;SDS011;9330;52.210;21.174;2023-06-24T00:12:09;4.63;;;3.40;;
18407;SDS011;9330;52.210;21.174;2023-06-24T00:14:45;4.35;;;3.65;;
18407;SDS011;9330;52.210;21.174;2023-06-24T00:17:13;4.00;;;3.60;;
18407;SDS011;9330;52.210;21.174;2023-06-24T00:19:41;5.18;;;4.13;;
18407;SDS011;9330;52.210;21.174;2023-06-24T00:22:09;3.97;;;3.58;;
18407;SDS011;9330;52.210;21.174;2023-06-24T00:24:35;4.22;;;3.80;;
18407;SDS011;9330;52.210;21.174;2023-06-24T00:27:05;4.10;;;3.60;;
18407;SDS011;9330;52.210;21.174;2023-06-24T00:29:32;4.10;;;3.28;;
18407;SDS011;9330;52.210;21.174;2023-06-24T00:32:00;4.07;;;3.58;;
18407;SDS011;9330;52.210;21.174;2023-06-24T00:34:27;4.38;;;3.60;;
18407;SDS011;9330;52.210;21.174;2023-06-24T00:36:53;5.32;;;3.75;;
18407;SDS011;9330;52.210;21.174;2023-06-24T00:39:20;4.60;;;4.07;;
18407;SDS011;9330;52.210;21.174;2023-06-24T00:41:49;3.85;;;3.40;;
18407;SDS011;9330;52.210;21.174;2023-06-24T00:44:15;3.88;;;3.28;;
18407;SDS011;9330;52.210;21.174;2023-06-24T00:46:43;4.18;;;3.72;;
18407;SDS011;9330;52.210;21.174;2023-06-24T00:49:11;4.20;;;3.78;;
18407;SDS011;9330;52.210;21.174;2023-06-24T00:51:38;3.60;;;3.30;;
18407;SDS011;9330;52.210;21.174;2023-06-24T00:54:12;5.35;;;3.60;;
18407;SDS011;9330;52.210;21.174;2023-06-24T00:56:39;3.85;;;3.53;;
18407;SDS011;9330;52.210;21.174;2023-06-24T00:59:08;4.00;;;3.60;;
18407;SDS011;9330;52.210;21.174;2023-06-24T01:01:38;4.78;;;3.67;;
18407;SDS011;9330;52.210;21.174;2023-06-24T01:04:06;4.75;;;4.18;;
18407;SDS011;9330;52.210;21.174;2023-06-24T01:06:35;4.97;;;3.97;;
18407;SDS011;9330;52.210;21.174;2023-06-24T01:09:08;3.80;;;3.40;;
18407;SDS011;9330;52.210;21.174;2023-06-24T01:11:35;5.22;;;3.88;;
18407;SDS011;9330;52.210;21.174;2023-06-24T01:14:02;4.05;;;3.65;;
18407;SDS011;9330;52.210;21.174;2023-06-24T01:16:30;4.75;;;3.95;;
18407;SDS011;9330;52.210;21.174;2023-06-24T01:19:11;4.18;;;3.83;;
18407;SDS011;9330;52.210;21.174;2023-06-24T01:21:54;3.97;;;3.58;;
18407;SDS011;9330;52.210;21.174;2023-06-24T01:24:45;4.07;;;3.67;;
18407;SDS011;9330;52.210;21.174;2023-06-24T01:30:21;4.20;;;3.80;;
18407;SDS011;9330;52.210;21.174;2023-06-24T01:33:08;4.25;;;3.80;;
18407;SDS011;9330;52.210;21.174;2023-06-24T01:35:39;4.68;;;4.13;;
18407;SDS011;9330;52.210;21.174;2023-06-24T01:38:10;5.00;;;3.63;;
18407;SDS011;9330;52.210;21.174;2023-06-24T01:40:48;4.70;;;4.20;;
18407;SDS011;9330;52.210;21.174;2023-06-24T01:43:17;4.35;;;3.08;;
18407;SDS011;9330;52.210;21.174;2023-06-24T01:45:48;5.47;;;3.80;;
18407;SDS011;9330;52.210;21.174;2023-06-24T01:48:21;4.38;;;3.97;;
18407;SDS011;9330;52.210;21.174;2023-06-24T01:50:53;4.40;;;3.70;;
18407;SDS011;9330;52.210;21.174;2023-06-24T01:53:24;4.43;;;4.03;;
18407;SDS011;9330;52.210;21.174;2023-06-24T01:55:53;5.03;;;3.95;;
18407;SDS011;9330;52.210;21.174;2023-06-24T01:58:22;4.32;;;3.92;;
18407;SDS011;9330;52.210;21.174;2023-06-24T02:00:50;4.05;;;3.53;;
18407;SDS011;9330;52.210;21.174;2023-06-24T02:03:19;3.60;;;3.30;;
18407;SDS011;9330;52.210;21.174;2023-06-24T02:05:47;4.95;;;4.20;;
18407;SDS011;9330;52.210;21.174;2023-06-24T02:08:15;6.43;;;4.20;;
18407;SDS011;9330;52.210;21.174;2023-06-24T02:10:43;5.32;;;4.45;;
18407;SDS011;9330;52.210;21.174;2023-06-24T02:13:12;4.80;;;3.95;;
18407;SDS011;9330;52.210;21.174;2023-06-24T02:15:40;4.80;;;4.30;;
18407;SDS011;9330;52.210;21.174;2023-06-24T02:18:08;5.78;;;3.95;;
18407;SDS011;9330;52.210;21.174;2023-06-24T02:20:38;4.68;;;3.90;;
18407;SDS011;9330;52.210;21.174;2023-06-24T02:23:07;4.68;;;4.13;;
18407;SDS011;9330;52.210;21.174;2023-06-24T02:25:35;4.57;;;3.97;;
18407;SDS011;9330;52.210;21.174;2023-06-24T02:28:04;5.03;;;3.80;;
18407;SDS011;9330;52.210;21.174;2023-06-24T02:30:32;6.63;;;4.20;;
18407;SDS011;9330;52.210;21.174;2023-06-24T02:33:01;4.50;;;4.10;;
18407;SDS011;9330;52.210;21.174;2023-06-24T02:35:28;6.07;;;4.10;;
18407;SDS011;9330;52.210;21.174;2023-06-24T02:37:56;5.18;;;4.00;;
18407;SDS011;9330;52.210;21.174;2023-06-24T02:40:23;4.78;;;4.00;;
18407;SDS011;9330;52.210;21.174;2023-06-24T02:42:50;5.47;;;4.32;;
18407;SDS011;9330;52.210;21.174;2023-06-24T02:45:17;5.75;;;4.20;;
18407;SDS011;9330;52.210;21.174;2023-06-24T02:47:44;4.22;;;3.83;;
18407;SDS011;9330;52.210;21.174;2023-06-24T02:50:13;4.25;;;3.85;;
18407;SDS011;9330;52.210;21.174;2023-06-24T02:52:41;5.85;;;4.00;;
18407;SDS011;9330;52.210;21.174;2023-06-24T02:55:11;5.10;;;4.40;;
18407;SDS011;9330;52.210;21.174;2023-06-24T02:57:38;4.80;;;3.97;;
18407;SDS011;9330;52.210;21.174;2023-06-24T03:00:06;5.13;;;4.63;;
18407;SDS011;9330;52.210;21.174;2023-06-24T03:02:37;4.88;;;4.15;;
18407;SDS011;9330;52.210;21.174;2023-06-24T03:05:05;5.20;;;3.80;;
18407;SDS011;9330;52.210;21.174;2023-06-24T03:07:33;5.60;;;4.57;;
18407;SDS011;9330;52.210;21.174;2023-06-24T03:10:01;5.35;;;4.03;;
18407;SDS011;9330;52.210;21.174;2023-06-24T03:12:31;4.88;;;3.95;;
18407;SDS011;9330;52.210;21.174;2023-06-24T03:14:58;5.72;;;4.65;;
18407;SDS011;9330;52.210;21.174;2023-06-24T03:17:25;5.07;;;4.50;;
18407;SDS011;9330;52.210;21.174;2023-06-24T03:19:52;4.95;;;4.38;;
18407;SDS011;9330;52.210;21.174;2023-06-24T03:22:20;5.43;;;4.18;;
18407;SDS011;9330;52.210;21.174;2023-06-24T03:24:47;4.53;;;4.05;;
18407;SDS011;9330;52.210;21.174;2023-06-24T03:27:14;5.65;;;4.30;;
18407;SDS011;9330;52.210;21.174;2023-06-24T03:29:42;7.18;;;4.28;;
18407;SDS011;9330;52.210;21.174;2023-06-24T03:32:09;6.45;;;4.32;;
18407;SDS011;9330;52.210;21.174;2023-06-24T03:34:36;6.65;;;4.47;;
18407;SDS011;9330;52.210;21.174;2023-06-24T03:37:03;4.88;;;4.13;;
18407;SDS011;9330;52.210;21.174;2023-06-24T03:39:30;4.50;;;4.10;;
18407;SDS011;9330;52.210;21.174;2023-06-24T03:41:57;5.88;;;4.40;;
18407;SDS011;9330;52.210;21.174;2023-06-24T03:44:24;5.78;;;4.30;;
18407;SDS011;9330;52.210;21.174;2023-06-24T03:46:52;7.07;;;4.78;;
18407;SDS011;9330;52.210;21.174;2023-06-24T03:49:19;5.10;;;4.60;;
18407;SDS011;9330;52.210;21.174;2023-06-24T03:51:46;4.88;;;4.22;;
18407;SDS011;9330;52.210;21.174;2023-06-24T03:54:12;5.20;;;4.35;;
18407;SDS011;9330;52.210;21.174;2023-06-24T03:56:39;4.22;;;3.83;;
18407;SDS011;9330;52.210;21.174;2023-06-24T03:59:06;6.80;;;5.07;;
18407;SDS011;9330;52.210;21.174;2023-06-24T04:01:33;5.68;;;4.32;;
18407;SDS011;9330;52.210;21.174;2023-06-24T04:04:02;5.20;;;4.35;;
18407;SDS011;9330;52.210;21.174;2023-06-24T04:06:29;4.75;;;4.35;;
18407;SDS011;9330;52.210;21.174;2023-06-24T04:08:56;4.40;;;4.00;;
18407;SDS011;9330;52.210;21.174;2023-06-24T04:11:23;5.00;;;4.50;;
18407;SDS011;9330;52.210;21.174;2023-06-24T04:13:50;5.22;;;4.63;;
18407;SDS011;9330;52.210;21.174;2023-06-24T04:16:17;5.72;;;4.55;;
18407;SDS011;9330;52.210;21.174;2023-06-24T04:18:44;6.07;;;4.47;;
18407;SDS011;9330;52.210;21.174;2023-06-24T04:21:12;5.60;;;4.70;;
18407;SDS011;9330;52.210;21.174;2023-06-24T04:23:40;5.55;;;4.88;;
18407;SDS011;9330;52.210;21.174;2023-06-24T04:26:07;4.95;;;4.53;;
18407;SDS011;9330;52.210;21.174;2023-06-24T04:28:34;5.35;;;4.32;;
18407;SDS011;9330;52.210;21.174;2023-06-24T04:31:01;5.05;;;4.55;;
18407;SDS011;9330;52.210;21.174;2023-06-24T04:33:28;5.10;;;4.57;;
18407;SDS011;9330;52.210;21.174;2023-06-24T04:35:55;6.18;;;4.82;;
18407;SDS011;9330;52.210;21.174;2023-06-24T04:38:23;5.45;;;4.95;;
18407;SDS011;9330;52.210;21.174;2023-06-24T04:40:50;5.25;;;4.75;;
18407;SDS011;9330;52.210;21.174;2023-06-24T04:43:17;4.82;;;4.18;;
18407;SDS011;9330;52.210;21.174;2023-06-24T04:45:43;5.25;;;4.43;;
18407;SDS011;9330;52.210;21.174;2023-06-24T04:48:10;5.93;;;4.65;;
18407;SDS011;9330;52.210;21.174;2023-06-24T04:50:37;7.57;;;5.47;;
18407;SDS011;9330;52.210;21.174;2023-06-24T04:53:05;8.13;;;4.32;;
18407;SDS011;9330;52.210;21.174;2023-06-24T04:55:34;5.90;;;4.82;;
18407;SDS011;9330;52.210;21.174;2023-06-24T04:58:00;4.80;;;4.28;;
18407;SDS011;9330;52.210;21.174;2023-06-24T05:00:27;4.57;;;3.67;;
18407;SDS011;9330;52.210;21.174;2023-06-24T05:02:54;5.85;;;4.25;;
18407;SDS011;9330;52.210;21.174;2023-06-24T05:05:21;5.85;;;4.50;;
18407;SDS011;9330;52.210;21.174;2023-06-24T05:07:47;5.28;;;4.70;;
18407;SDS011;9330;52.210;21.174;2023-06-24T05:10:15;5.28;;;4.20;;
18407;SDS011;9330;52.210;21.174;2023-06-24T05:12:43;5.45;;;4.50;;
18407;SDS011;9330;52.210;21.174;2023-06-24T05:15:10;4.93;;;4.43;;
18407;SDS011;9330;52.210;21.174;2023-06-24T05:17:37;5.50;;;4.18;;
18407;SDS011;9330;52.210;21.174;2023-06-24T05:20:04;4.57;;;4.15;;
18407;SDS011;9330;52.210;21.174;2023-06-24T05:22:32;4.85;;;3.92;;
18407;SDS011;9330;52.210;21.174;2023-06-24T05:24:58;4.40;;;3.78;;
18407;SDS011;9330;52.210;21.174;2023-06-24T05:27:25;4.47;;;4.03;;
18407;SDS011;9330;52.210;21.174;2023-06-24T05:29:54;4.60;;;4.10;;
18407;SDS011;9330;52.210;21.174;2023-06-24T05:32:20;4.88;;;3.55;;
18407;SDS011;9330;52.210;21.174;2023-06-24T05:34:47;4.80;;;3.78;;
18407;SDS011;9330;52.210;21.174;2023-06-24T05:37:14;4.53;;;4.13;;
18407;SDS011;9330;52.210;21.174;2023-06-24T05:39:41;3.97;;;3.63;;
18407;SDS011;9330;52.210;21.174;2023-06-24T05:42:08;6.18;;;4.20;;
18407;SDS011;9330;52.210;21.174;2023-06-24T05:44:35;5.85;;;4.05;;
18407;SDS011;9330;52.210;21.174;2023-06-24T05:47:03;5.53;;;4.30;;
18407;SDS011;9330;52.210;21.174;2023-06-24T05:49:30;4.53;;;3.85;;
18407;SDS011;9330;52.210;21.174;2023-06-24T05:51:57;4.90;;;4.05;;
18407;SDS011;9330;52.210;21.174;2023-06-24T05:54:25;4.90;;;3.67;;
18407;SDS011;9330;52.210;21.174;2023-06-24T05:56:52;4.63;;;4.05;;
18407;SDS011;9330;52.210;21.174;2023-06-24T05:59:19;4.40;;;3.72;;
18407;SDS011;9330;52.210;21.174;2023-06-24T06:01:46;4.22;;;3.75;;
18407;SDS011;9330;52.210;21.174;2023-06-24T06:04:14;5.75;;;3.70;;
18407;SDS011;9330;52.210;21.174;2023-06-24T06:06:41;5.35;;;3.92;;
18407;SDS011;9330;52.210;21.174;2023-06-24T06:09:07;3.97;;;3.25;;
18407;SDS011;9330;52.210;21.174;2023-06-24T06:11:34;6.68;;;3.90;;
18407;SDS011;9330;52.210;21.174;2023-06-24T06:14:01;3.83;;;3.42;;
18407;SDS011;9330;52.210;21.174;2023-06-24T06:16:28;3.72;;;3.28;;
18407;SDS011;9330;52.210;21.174;2023-06-24T06:18:55;4.95;;;3.45;;
18407;SDS011;9330;52.210;21.174;2023-06-24T06:21:23;4.82;;;3.85;;
18407;SDS011;9330;52.210;21.174;2023-06-24T06:23:50;4.22;;;3.78;;
18407;SDS011;9330;52.210;21.174;2023-06-24T06:26:17;5.38;;;3.63;;
18407;SDS011;9330;52.210;21.174;2023-06-24T06:28:44;5.47;;;3.67;;
18407;SDS011;9330;52.210;21.174;2023-06-24T06:31:12;3.60;;;3.30;;
18407;SDS011;9330;52.210;21.174;2023-06-24T06:33:39;4.60;;;3.50;;
18407;SDS011;9330;52.210;21.174;2023-06-24T06:36:06;5.70;;;3.60;;
18407;SDS011;9330;52.210;21.174;2023-06-24T06:38:34;4.72;;;3.65;;
18407;SDS011;9330;52.210;21.174;2023-06-24T06:41:01;5.35;;;3.40;;
18407;SDS011;9330;52.210;21.174;2023-06-24T06:43:27;5.88;;;3.50;;
18407;SDS011;9330;52.210;21.174;2023-06-24T06:45:54;5.18;;;3.60;;
18407;SDS011;9330;52.210;21.174;2023-06-24T06:48:22;4.57;;;3.78;;
18407;SDS011;9330;52.210;21.174;2023-06-24T06:50:48;5.22;;;3.10;;
18407;SDS011;9330;52.210;21.174;2023-06-24T06:53:17;4.45;;;3.38;;
18407;SDS011;9330;52.210;21.174;2023-06-24T06:55:45;5.65;;;4.10;;
18407;SDS011;9330;52.210;21.174;2023-06-24T06:58:12;6.10;;;3.67;;
18407;SDS011;9330;52.210;21.174;2023-06-24T07:00:39;5.07;;;3.65;;
18407;SDS011;9330;52.210;21.174;2023-06-24T07:03:07;4.00;;;3.50;;
18407;SDS011;9330;52.210;21.174;2023-06-24T07:05:34;5.80;;;4.32;;
18407;SDS011;9330;52.210;21.174;2023-06-24T07:08:01;6.63;;;3.80;;
18407;SDS011;9330;52.210;21.174;2023-06-24T07:10:28;3.92;;;3.30;;
18407;SDS011;9330;52.210;21.174;2023-06-24T07:12:56;4.50;;;3.63;;
18407;SDS011;9330;52.210;21.174;2023-06-24T07:15:23;4.80;;;3.60;;
18407;SDS011;9330;52.210;21.174;2023-06-24T07:17:51;3.78;;;3.33;;
18407;SDS011;9330;52.210;21.174;2023-06-24T07:20:18;4.38;;;3.67;;
18407;SDS011;9330;52.210;21.174;2023-06-24T07:22:45;4.50;;;3.60;;
18407;SDS011;9330;52.210;21.174;2023-06-24T07:25:12;3.72;;;3.30;;
18407;SDS011;9330;52.210;21.174;2023-06-24T07:27:40;5.25;;;4.00;;
18407;SDS011;9330;52.210;21.174;2023-06-24T07:30:09;3.92;;;3.60;;
18407;SDS011;9330;52.210;21.174;2023-06-24T07:32:36;5.57;;;3.38;;
18407;SDS011;9330;52.210;21.174;2023-06-24T07:35:04;4.28;;;3.47;;
18407;SDS011;9330;52.210;21.174;2023-06-24T07:37:31;4.10;;;3.42;;
18407;SDS011;9330;52.210;21.174;2023-06-24T07:40:00;4.70;;;3.40;;
18407;SDS011;9330;52.210;21.174;2023-06-24T07:42:28;4.90;;;3.67;;
18407;SDS011;9330;52.210;21.174;2023-06-24T07:44:55;4.45;;;3.72;;
18407;SDS011;9330;52.210;21.174;2023-06-24T07:47:23;4.00;;;3.60;;
18407;SDS011;9330;52.210;21.174;2023-06-24T07:49:50;4.30;;;3.60;;
18407;SDS011;9330;52.210;21.174;2023-06-24T07:52:17;4.43;;;3.72;;
18407;SDS011;9330;52.210;21.174;2023-06-24T07:54:44;4.65;;;3.47;;
18407;SDS011;9330;52.210;21.174;2023-06-24T07:57:11;3.53;;;3.22;;
18407;SDS011;9330;52.210;21.174;2023-06-24T07:59:38;5.75;;;4.00;;
18407;SDS011;9330;52.210;21.174;2023-06-24T08:02:04;4.38;;;3.50;;
18407;SDS011;9330;52.210;21.174;2023-06-24T08:04:33;3.33;;;2.88;;
18407;SDS011;9330;52.210;21.174;2023-06-24T08:06:59;4.93;;;3.53;;
18407;SDS011;9330;52.210;21.174;2023-06-24T08:09:26;4.90;;;3.70;;
18407;SDS011;9330;52.210;21.174;2023-06-24T08:11:53;4.35;;;3.53;;
18407;SDS011;9330;52.210;21.174;2023-06-24T08:14:20;4.15;;;3.67;;
18407;SDS011;9330;52.210;21.174;2023-06-24T08:16:47;4.13;;;3.72;;
18407;SDS011;9330;52.210;21.174;2023-06-24T08:19:14;3.97;;;3.33;;
18407;SDS011;9330;52.210;21.174;2023-06-24T08:21:42;5.88;;;3.88;;
18407;SDS011;9330;52.210;21.174;2023-06-24T08:24:09;3.63;;;3.33;;
18407;SDS011;9330;52.210;21.174;2023-06-24T08:26:36;5.05;;;3.70;;
18407;SDS011;9330;52.210;21.174;2023-06-24T08:29:03;4.35;;;3.60;;
18407;SDS011;9330;52.210;21.174;2023-06-24T08:31:31;3.72;;;3.28;;
18407;SDS011;9330;52.210;21.174;2023-06-24T08:33:58;3.63;;;3.33;;
18407;SDS011;9330;52.210;21.174;2023-06-24T08:36:27;3.40;;;3.10;;
18407;SDS011;9330;52.210;21.174;2023-06-24T08:38:56;3.55;;;3.25;;
18407;SDS011;9330;52.210;21.174;2023-06-24T08:41:23;3.72;;;3.25;;
18407;SDS011;9330;52.210;21.174;2023-06-24T08:43:51;3.92;;;3.20;;
18407;SDS011;9330;52.210;21.174;2023-06-24T08:46:19;3.40;;;3.10;;
18407;SDS011;9330;52.210;21.174;2023-06-24T08:48:46;4.10;;;3.45;;
18407;SDS011;9330;52.210;21.174;2023-06-24T08:51:15;2.90;;;2.70;;
18407;SDS011;9330;52.210;21.174;2023-06-24T08:53:46;4.57;;;3.05;;
18407;SDS011;9330;52.210;21.174;2023-06-24T08:56:15;3.25;;;2.50;;
18407;SDS011;9330;52.210;21.174;2023-06-24T08:58:43;3.08;;;2.47;;
18407;SDS011;9330;52.210;21.174;2023-06-24T09:01:10;3.40;;;3.10;;
18407;SDS011;9330;52.210;21.174;2023-06-24T09:03:37;4.50;;;2.65;;
18407;SDS011;9330;52.210;21.174;2023-06-24T09:06:04;3.17;;;2.50;;
18407;SDS011;9330;52.210;21.174;2023-06-24T09:08:31;6.40;;;2.88;;
18407;SDS011;9330;52.210;21.174;2023-06-24T09:11:00;3.97;;;2.95;;
18407;SDS011;9330;52.210;21.174;2023-06-24T09:13:34;3.08;;;2.78;;
18407;SDS011;9330;52.210;21.174;2023-06-24T09:16:11;4.18;;;2.80;;
18407;SDS011;9330;52.210;21.174;2023-06-24T09:18:39;4.15;;;2.90;;
18407;SDS011;9330;52.210;21.174;2023-06-24T09:21:06;3.90;;;2.75;;
18407;SDS011;9330;52.210;21.174;2023-06-24T09:23:35;3.35;;;2.90;;
18407;SDS011;9330;52.210;21.174;2023-06-24T09:26:03;3.83;;;2.75;;
18407;SDS011;9330;52.210;21.174;2023-06-24T09:28:31;3.85;;;2.92;;
18407;SDS011;9330;52.210;21.174;2023-06-24T09:31:06;3.72;;;2.80;;
18407;SDS011;9330;52.210;21.174;2023-06-24T09:33:33;2.78;;;2.58;;
18407;SDS011;9330;52.210;21.174;2023-06-24T09:36:01;3.70;;;3.10;;
18407;SDS011;9330;52.210;21.174;2023-06-24T09:38:32;3.38;;;3.08;;
18407;SDS011;9330;52.210;21.174;2023-06-24T09:41:01;4.00;;;2.83;;
18407;SDS011;9330;52.210;21.174;2023-06-24T09:43:29;3.42;;;3.13;;
18407;SDS011;9330;52.210;21.174;2023-06-24T09:45:56;3.95;;;2.88;;
18407;SDS011;9330;52.210;21.174;2023-06-24T09:48:25;4.38;;;2.85;;
18407;SDS011;9330;52.210;21.174;2023-06-24T09:50:52;4.75;;;2.90;;
18407;SDS011;9330;52.210;21.174;2023-06-24T09:53:19;3.42;;;3.13;;
18407;SDS011;9330;52.210;21.174;2023-06-24T09:55:47;3.30;;;3.00;;
18407;SDS011;9330;52.210;21.174;2023-06-24T09:58:15;4.18;;;3.00;;
18407;SDS011;9330;52.210;21.174;2023-06-24T10:00:44;4.47;;;3.67;;
18407;SDS011;9330;52.210;21.174;2023-06-24T10:03:11;4.70;;;2.85;;
18407;SDS011;9330;52.210;21.174;2023-06-24T10:05:40;3.30;;;3.00;;
18407;SDS011;9330;52.210;21.174;2023-06-24T10:08:08;4.05;;;3.30;;
18407;SDS011;9330;52.210;21.174;2023-06-24T10:10:36;4.18;;;2.97;;
18407;SDS011;9330;52.210;21.174;2023-06-24T10:13:03;4.55;;;3.30;;
18407;SDS011;9330;52.210;21.174;2023-06-24T10:15:31;4.05;;;3.30;;
18407;SDS011;9330;52.210;21.174;2023-06-24T10:18:01;4.00;;;3.13;;
18407;SDS011;9330;52.210;21.174;2023-06-24T10:20:28;5.78;;;3.30;;
18407;SDS011;9330;52.210;21.174;2023-06-24T10:22:56;3.50;;;3.20;;
18407;SDS011;9330;52.210;21.174;2023-06-24T10:25:24;6.13;;;3.22;;
18407;SDS011;9330;52.210;21.174;2023-06-24T10:28:01;4.28;;;3.20;;
18407;SDS011;9330;52.210;21.174;2023-06-24T10:30:28;4.07;;;3.60;;
18407;SDS011;9330;52.210;21.174;2023-06-24T10:32:57;3.42;;;3.05;;
18407;SDS011;9330;52.210;21.174;2023-06-24T10:35:24;3.40;;;3.10;;
18407;SDS011;9330;52.210;21.174;2023-06-24T10:37:55;4.00;;;3.20;;
18407;SDS011;9330;52.210;21.174;2023-06-24T10:40:36;3.90;;;3.28;;
18407;SDS011;9330;52.210;21.174;2023-06-24T10:46:06;4.10;;;3.10;;
18407;SDS011;9330;52.210;21.174;2023-06-24T10:48:41;3.55;;;3.10;;
18407;SDS011;9330;52.210;21.174;2023-06-24T10:51:07;4.55;;;3.70;;
18407;SDS011;9330;52.210;21.174;2023-06-24T10:53:36;4.35;;;3.35;;
18407;SDS011;9330;52.210;21.174;2023-06-24T10:56:03;5.32;;;3.50;;
18407;SDS011;9330;52.210;21.174;2023-06-24T10:58:30;3.55;;;3.13;;
18407;SDS011;9330;52.210;21.174;2023-06-24T11:01:05;3.95;;;3.55;;
18407;SDS011;9330;52.210;21.174;2023-06-24T11:03:33;3.70;;;3.38;;
18407;SDS011;9330;52.210;21.174;2023-06-24T11:06:03;4.32;;;3.28;;
18407;SDS011;9330;52.210;21.174;2023-06-24T11:08:30;3.60;;;3.15;;
18407;SDS011;9330;52.210;21.174;2023-06-24T11:10:59;3.40;;;3.10;;
18407;SDS011;9330;52.210;21.174;2023-06-24T11:13:27;3.60;;;3.30;;
18407;SDS011;9330;52.210;21.174;2023-06-24T11:16:02;4.97;;;3.08;;
18407;SDS011;9330;52.210;21.174;2023-06-24T11:18:36;3.85;;;3.30;;
18407;SDS011;9330;52.210;21.174;2023-06-24T11:21:04;4.32;;;3.28;;
18407;SDS011;9330;52.210;21.174;2023-06-24T11:23:35;3.80;;;3.45;;
18407;SDS011;9330;52.210;21.174;2023-06-24T11:26:03;4.10;;;3.30;;
18407;SDS011;9330;52.210;21.174;2023-06-24T11:28:31;4.55;;;2.85;;
18407;SDS011;9330;52.210;21.174;2023-06-24T11:31:05;3.50;;;3.20;;
18407;SDS011;9330;52.210;21.174;2023-06-24T11:33:32;3.83;;;3.42;;
18407;SDS011;9330;52.210;21.174;2023-06-24T11:35:59;3.60;;;3.10;;
18407;SDS011;9330;52.210;21.174;2023-06-24T11:38:27;3.20;;;2.90;;
18407;SDS011;9330;52.210;21.174;2023-06-24T11:40:57;3.63;;;3.25;;
18407;SDS011;9330;52.210;21.174;2023-06-24T11:43:26;3.97;;;3.58;;
18407;SDS011;9330;52.210;21.174;2023-06-24T11:45:54;4.32;;;3.60;;
18407;SDS011;9330;52.210;21.174;2023-06-24T11:48:20;3.35;;;3.00;;
18407;SDS011;9330;52.210;21.174;2023-06-24T11:50:52;3.53;;;3.17;;
18407;SDS011;9330;52.210;21.174;2023-06-24T11:53:22;3.20;;;2.90;;
18407;SDS011;9330;52.210;21.174;2023-06-24T11:55:55;4.55;;;3.15;;
18407;SDS011;9330;52.210;21.174;2023-06-24T11:58:22;3.95;;;3.20;;
18407;SDS011;9330;52.210;21.174;2023-06-24T12:00:50;3.85;;;3.22;;
18407;SDS011;9330;52.210;21.174;2023-06-24T12:03:22;5.65;;;3.13;;
18407;SDS011;9330;52.210;21.174;2023-06-24T12:05:49;3.97;;;3.30;;
18407;SDS011;9330;52.210;21.174;2023-06-24T12:08:17;3.90;;;3.17;;
18407;SDS011;9330;52.210;21.174;2023-06-24T12:10:44;4.93;;;3.30;;
18407;SDS011;9330;52.210;21.174;2023-06-24T12:13:11;3.15;;;2.83;;
18407;SDS011;9330;52.210;21.174;2023-06-24T12:15:38;5.47;;;3.60;;
18407;SDS011;9330;52.210;21.174;2023-06-24T12:18:06;4.68;;;3.45;;
18407;SDS011;9330;52.210;21.174;2023-06-24T12:20:33;5.47;;;3.45;;
18407;SDS011;9330;52.210;21.174;2023-06-24T12:23:01;6.40;;;3.72;;
18407;SDS011;9330;52.210;21.174;2023-06-24T12:25:29;4.20;;;3.80;;
18407;SDS011;9330;52.210;21.174;2023-06-24T12:27:56;4.53;;;3.38;;
18407;SDS011;9330;52.210;21.174;2023-06-24T12:30:24;3.70;;;3.10;;
18407;SDS011;9330;52.210;21.174;2023-06-24T12:32:51;5.57;;;3.30;;
18407;SDS011;9330;52.210;21.174;2023-06-24T12:35:19;3.67;;;3.28;;
18407;SDS011;9330;52.210;21.174;2023-06-24T12:37:50;4.82;;;3.13;;
18407;SDS011;9330;52.210;21.174;2023-06-24T12:40:17;3.63;;;3.33;;
18407;SDS011;9330;52.210;21.174;2023-06-24T12:42:45;5.18;;;3.50;;
18407;SDS011;9330;52.210;21.174;2023-06-24T12:45:11;4.90;;;3.50;;
18407;SDS011;9330;52.210;21.174;2023-06-24T12:47:38;6.07;;;4.05;;
18407;SDS011;9330;52.210;21.174;2023-06-24T12:50:06;5.63;;;3.60;;
18407;SDS011;9330;52.210;21.174;2023-06-24T12:52:35;4.93;;;3.50;;
18407;SDS011;9330;52.210;21.174;2023-06-24T12:55:01;6.40;;;3.72;;
18407;SDS011;9330;52.210;21.174;2023-06-24T12:57:29;3.38;;;3.08;;
18407;SDS011;9330;52.210;21.174;2023-06-24T12:59:56;4.13;;;3.72;;
18407;SDS011;9330;52.210;21.174;2023-06-24T13:02:23;5.40;;;4.00;;
18407;SDS011;9330;52.210;21.174;2023-06-24T13:04:49;3.97;;;3.40;;
18407;SDS011;9330;52.210;21.174;2023-06-24T13:07:16;5.20;;;3.80;;
18407;SDS011;9330;52.210;21.174;2023-06-24T13:09:44;4.53;;;3.65;;
18407;SDS011;9330;52.210;21.174;2023-06-24T13:12:11;4.10;;;3.45;;
18407;SDS011;9330;52.210;21.174;2023-06-24T13:14:38;3.95;;;3.53;;
18407;SDS011;9330;52.210;21.174;2023-06-24T13:17:05;5.85;;;2.95;;
18407;SDS011;9330;52.210;21.174;2023-06-24T13:19:32;3.40;;;3.10;;
18407;SDS011;9330;52.210;21.174;2023-06-24T13:21:59;5.05;;;3.78;;
18407;SDS011;9330;52.210;21.174;2023-06-24T13:24:26;3.85;;;3.42;;
18407;SDS011;9330;52.210;21.174;2023-06-24T13:26:54;5.03;;;3.53;;
18407;SDS011;9330;52.210;21.174;2023-06-24T13:29:21;3.63;;;3.33;;
18407;SDS011;9330;52.210;21.174;2023-06-24T13:31:48;3.70;;;3.35;;
18407;SDS011;9330;52.210;21.174;2023-06-24T13:34:15;4.57;;;3.33;;
18407;SDS011;9330;52.210;21.174;2023-06-24T13:36:42;5.95;;;3.97;;
18407;SDS011;9330;52.210;21.174;2023-06-24T13:39:09;4.15;;;3.65;;
18407;SDS011;9330;52.210;21.174;2023-06-24T13:41:37;5.13;;;4.18;;
18407;SDS011;9330;52.210;21.174;2023-06-24T13:44:05;5.10;;;4.10;;
18407;SDS011;9330;52.210;21.174;2023-06-24T13:46:32;4.47;;;4.07;;
18407;SDS011;9330;52.210;21.174;2023-06-24T13:49:00;6.25;;;4.20;;
18407;SDS011;9330;52.210;21.174;2023-06-24T13:51:27;4.00;;;3.60;;
18407;SDS011;9330;52.210;21.174;2023-06-24T13:53:54;5.25;;;3.63;;
18407;SDS011;9330;52.210;21.174;2023-06-24T13:56:21;4.90;;;4.00;;
18407;SDS011;9330;52.210;21.174;2023-06-24T13:58:51;5.38;;;3.58;;
18407;SDS011;9330;52.210;21.174;2023-06-24T14:01:20;4.13;;;3.72;;
18407;SDS011;9330;52.210;21.174;2023-06-24T14:03:47;5.22;;;3.60;;
18407;SDS011;9330;52.210;21.174;2023-06-24T14:06:18;4.50;;;3.53;;
18407;SDS011;9330;52.210;21.174;2023-06-24T14:08:45;4.22;;;3.60;;
18407;SDS011;9330;52.210;21.174;2023-06-24T14:11:12;3.95;;;3.55;;
18407;SDS011;9330;52.210;21.174;2023-06-24T14:13:40;3.50;;;3.20;;
18407;SDS011;9330;52.210;21.174;2023-06-24T14:16:07;5.10;;;3.45;;
18407;SDS011;9330;52.210;21.174;2023-06-24T14:18:37;3.92;;;3.35;;
18407;SDS011;9330;52.210;21.174;2023-06-24T14:21:04;3.85;;;3.40;;
18407;SDS011;9330;52.210;21.174;2023-06-24T14:23:32;3.70;;;2.85;;
18407;SDS011;9330;52.210;21.174;2023-06-24T14:26:00;4.47;;;3.50;;
18407;SDS011;9330;52.210;21.174;2023-06-24T14:28:27;3.60;;;3.00;;
18407;SDS011;9330;52.210;21.174;2023-06-24T14:30:54;3.88;;;2.83;;
18407;SDS011;9330;52.210;21.174;2023-06-24T14:33:21;7.43;;;3.08;;
18407;SDS011;9330;52.210;21.174;2023-06-24T14:35:49;3.53;;;2.78;;
18407;SDS011;9330;52.210;21.174;2023-06-24T14:38:16;4.47;;;2.80;;
18407;SDS011;9330;52.210;21.174;2023-06-24T14:40:43;5.80;;;2.92;;
18407;SDS011;9330;52.210;21.174;2023-06-24T14:43:10;4.90;;;3.22;;
18407;SDS011;9330;52.210;21.174;2023-06-24T14:45:37;3.75;;;3.15;;
18407;SDS011;9330;52.210;21.174;2023-06-24T14:48:04;4.28;;;3.35;;
18407;SDS011;9330;52.210;21.174;2023-06-24T14:50:31;4.30;;;3.17;;
18407;SDS011;9330;52.210;21.174;2023-06-24T14:52:59;5.10;;;2.90;;
18407;SDS011;9330;52.210;21.174;2023-06-24T14:55:26;4.72;;;2.80;;
18407;SDS011;9330;52.210;21.174;2023-06-24T14:57:53;3.72;;;3.28;;
18407;SDS011;9330;52.210;21.174;2023-06-24T15:00:19;3.50;;;3.20;;